Time;durP1;ratioP1;P1;durP2;ratioP2;P2;SDS_P1;SDS_P2;PMS_P1;PMS_P2;Temp;Humidity;BMP_temperature;BMP_pressure;BME280_temperature;BME280_humidity;BME280_pressure;Samples;Min_cycle;Max_cycle;Signal;HPM_P1;HPM_P2
2022/03/15 00:00:24;;;;;;;15.57;8.88;;;2.90;99.90;;;;;;5011294;28;20324;-67
2022/03/15 00:02:50;;;;;;;13.10;7.60;;;2.90;99.90;;;;;;5023561;28;20404;-67
2022/03/15 00:05:20;;;;;;;13.55;8.43;;;2.90;99.90;;;;;;4993803;28;20437;-67
2022/03/15 00:07:47;;;;;;;9.70;7.63;;;2.90;99.90;;;;;;4990590;28;20050;-67
2022/03/15 00:10:15;;;;;;;16.90;9.88;;;2.90;99.90;;;;;;4993156;28;20092;-67
2022/03/15 00:12:45;;;;;;;16.48;8.50;;;3.00;99.90;;;;;;4991308;28;20034;-67
2022/03/15 00:15:11;;;;;;;19.80;9.52;;;3.00;99.90;;;;;;5000271;28;20065;-66
2022/03/15 00:17:42;;;;;;;20.92;10.55;;;3.10;99.90;;;;;;4980642;28;20494;-66
2022/03/15 00:20:11;;;;;;;13.95;9.48;;;3.10;99.90;;;;;;5021815;28;20085;-66
2022/03/15 00:22:37;;;;;;;18.98;9.60;;;3.20;99.90;;;;;;4998386;28;20714;-67
2022/03/15 00:25:09;;;;;;;17.80;10.27;;;3.20;99.90;;;;;;4993810;28;20050;-67
2022/03/15 00:27:36;;;;;;;16.25;9.98;;;3.20;99.90;;;;;;4988462;28;20181;-66
2022/03/15 00:30:04;;;;;;;15.80;10.80;;;3.20;99.90;;;;;;4996086;28;20076;-67
2022/03/15 00:32:30;;;;;;;23.13;11.65;;;3.30;99.90;;;;;;4989959;28;20037;-67
2022/03/15 00:34:56;;;;;;;20.25;11.52;;;3.30;99.90;;;;;;4990641;28;20042;-67
2022/03/15 00:37:21;;;;;;;17.60;11.50;;;3.30;99.90;;;;;;4994687;28;20139;-67
2022/03/15 00:39:47;;;;;;;21.25;11.70;;;3.30;99.90;;;;;;4993217;28;20137;-67
2022/03/15 00:42:13;;;;;;;22.17;11.95;;;3.30;99.90;;;;;;5021828;28;20038;-67
2022/03/15 00:44:39;;;;;;;19.50;11.85;;;3.30;99.90;;;;;;4990842;28;20045;-67
2022/03/15 00:47:06;;;;;;;14.93;9.98;;;3.30;99.90;;;;;;4993348;28;20474;-67
2022/03/15 00:49:32;;;;;;;17.13;10.77;;;3.30;99.90;;;;;;5025707;28;20520;-67
2022/03/15 00:51:58;;;;;;;13.68;9.65;;;3.30;99.90;;;;;;4994711;28;20087;-67
2022/03/15 00:54:24;;;;;;;18.50;10.60;;;3.30;99.90;;;;;;4979380;28;20226;-67
2022/03/15 00:56:53;;;;;;;18.15;10.32;;;3.20;99.90;;;;;;5030556;28;20057;-67
2022/03/15 00:59:19;;;;;;;17.98;10.30;;;3.20;99.90;;;;;;4994037;28;20038;-67
2022/03/15 01:01:46;;;;;;;17.00;10.30;;;3.20;99.90;;;;;;4995835;28;20038;-67
2022/03/15 01:04:12;;;;;;;19.17;10.98;;;3.10;99.90;;;;;;5001318;28;20547;-67
2022/03/15 01:06:39;;;;;;;19.65;10.95;;;3.20;99.90;;;;;;4997118;28;20046;-67
2022/03/15 01:09:06;;;;;;;18.75;11.07;;;3.10;99.90;;;;;;4997954;28;20371;-67
2022/03/15 01:11:32;;;;;;;21.98;12.63;;;3.20;99.90;;;;;;4994712;28;20062;-67
2022/03/15 01:13:58;;;;;;;19.88;11.23;;;3.20;99.90;;;;;;5004511;28;20038;-67
2022/03/15 01:16:24;;;;;;;22.88;10.40;;;3.20;99.90;;;;;;4998217;28;20038;-67
2022/03/15 01:18:50;;;;;;;17.55;10.15;;;3.30;99.90;;;;;;5002122;28;20053;-67
2022/03/15 01:21:16;;;;;;;18.50;10.25;;;3.30;99.90;;;;;;5010468;28;20041;-67
2022/03/15 01:23:42;;;;;;;17.83;10.07;;;3.30;99.90;;;;;;5027914;28;20038;-67
2022/03/15 01:26:08;;;;;;;23.48;11.25;;;3.40;99.90;;;;;;5028400;28;20091;-67
2022/03/15 01:28:34;;;;;;;21.70;11.07;;;3.40;99.90;;;;;;4993022;28;20445;-67
2022/03/15 01:30:59;;;;;;;18.75;10.07;;;3.40;99.90;;;;;;4991739;28;20422;-67
2022/03/15 01:33:26;;;;;;;19.30;11.25;;;3.40;99.90;;;;;;5011249;28;20148;-67
2022/03/15 01:35:52;;;;;;;24.48;11.57;;;3.40;99.90;;;;;;4996516;28;20052;-67
2022/03/15 01:38:19;;;;;;;22.88;12.18;;;3.40;99.90;;;;;;4998840;28;20529;-67
2022/03/15 01:40:45;;;;;;;23.45;11.35;;;3.50;99.90;;;;;;4995421;28;20069;-67
2022/03/15 01:43:11;;;;;;;16.05;10.75;;;3.50;99.90;;;;;;4996752;28;20105;-67
2022/03/15 01:45:38;;;;;;;21.30;10.90;;;3.50;99.90;;;;;;4993459;28;20050;-68
2022/03/15 01:48:05;;;;;;;21.60;11.52;;;3.50;99.90;;;;;;5026027;28;20069;-67
2022/03/15 01:50:31;;;;;;;21.90;10.43;;;3.50;99.90;;;;;;5030776;28;20046;-68
2022/03/15 01:52:57;;;;;;;20.15;10.80;;;3.50;99.90;;;;;;4996318;28;20046;-67
2022/03/15 01:55:23;;;;;;;20.58;11.23;;;3.50;99.90;;;;;;5026391;28;20041;-67
2022/03/15 01:57:50;;;;;;;24.65;12.88;;;3.50;99.90;;;;;;5025671;28;20050;-67
2022/03/15 02:00:19;;;;;;;23.98;12.00;;;3.50;99.90;;;;;;4996074;28;20533;-67
2022/03/15 02:02:45;;;;;;;23.20;11.90;;;3.50;99.90;;;;;;4991398;28;21033;-67
2022/03/15 02:05:11;;;;;;;16.98;10.18;;;3.50;99.90;;;;;;4994926;28;20100;-67
2022/03/15 02:07:38;;;;;;;20.15;11.10;;;3.50;99.90;;;;;;4979733;28;20054;-67
2022/03/15 02:10:05;;;;;;;18.58;9.70;;;3.60;99.90;;;;;;4996773;28;20050;-67
2022/03/15 02:12:31;;;;;;;20.42;10.82;;;3.60;99.90;;;;;;4996132;28;20030;-67
2022/03/15 02:15:02;;;;;;;21.88;12.00;;;3.60;99.90;;;;;;5028768;28;20042;-67
2022/03/15 02:17:29;;;;;;;18.83;12.95;;;3.60;99.90;;;;;;4995066;28;20480;-67
2022/03/15 02:19:54;;;;;;;20.60;11.63;;;3.60;99.90;;;;;;5027833;28;20085;-67
2022/03/15 02:22:21;;;;;;;21.13;10.77;;;3.60;99.90;;;;;;4994665;28;20069;-67
2022/03/15 02:24:48;;;;;;;20.35;11.00;;;3.60;99.90;;;;;;4994520;28;20042;-67
2022/03/15 02:27:13;;;;;;;19.63;11.57;;;3.60;99.90;;;;;;5025761;28;20053;-68
2022/03/15 02:29:39;;;;;;;22.23;10.57;;;3.60;99.90;;;;;;5029332;28;20456;-68
2022/03/15 02:32:05;;;;;;;18.13;9.50;;;3.60;99.90;;;;;;4991119;28;20038;-68
2022/03/15 02:34:31;;;;;;;21.25;10.23;;;3.60;99.90;;;;;;4995739;28;20088;-68
2022/03/15 02:36:56;;;;;;;19.52;9.98;;;3.60;99.90;;;;;;4995336;28;20159;-68
2022/03/15 02:39:22;;;;;;;16.90;9.48;;;3.50;99.90;;;;;;5029379;28;20045;-68
2022/03/15 02:41:48;;;;;;;19.77;10.13;;;3.40;99.90;;;;;;4994352;28;20486;-68
2022/03/15 02:44:14;;;;;;;17.17;9.98;;;3.40;99.90;;;;;;4976165;28;20081;-68
2022/03/15 02:46:39;;;;;;;18.67;10.63;;;3.40;99.90;;;;;;4993331;28;20035;-68
2022/03/15 02:49:09;;;;;;;20.73;10.68;;;3.40;99.90;;;;;;5002965;28;20045;-68
2022/03/15 02:51:35;;;;;;;16.70;8.90;;;3.40;99.90;;;;;;4993767;28;20080;-68
2022/03/15 02:54:04;;;;;;;14.68;10.23;;;3.40;99.90;;;;;;4995271;28;20066;-68
2022/03/15 02:56:33;;;;;;;17.60;10.40;;;3.40;99.90;;;;;;4996072;28;20034;-68
2022/03/15 02:58:59;;;;;;;16.10;10.48;;;3.30;99.90;;;;;;5023064;28;20042;-68
2022/03/15 03:01:25;;;;;;;22.30;9.85;;;3.30;99.90;;;;;;5027118;28;20088;-68
2022/03/15 03:03:52;;;;;;;14.57;8.88;;;3.30;99.90;;;;;;4993380;28;20100;-68
2022/03/15 03:06:18;;;;;;;14.52;9.40;;;3.30;99.90;;;;;;4993667;28;20057;-67
2022/03/15 03:08:44;;;;;;;21.27;9.98;;;3.20;99.90;;;;;;4994799;28;20034;-68
2022/03/15 03:11:10;;;;;;;19.25;10.25;;;3.20;99.90;;;;;;4995509;28;20084;-66
2022/03/15 03:13:37;;;;;;;19.38;11.32;;;3.20;99.90;;;;;;4995616;28;20065;-67
2022/03/15 03:16:05;;;;;;;12.93;9.30;;;3.20;99.90;;;;;;5027600;28;20112;-66
2022/03/15 03:18:34;;;;;;;14.40;9.88;;;3.20;99.90;;;;;;4991305;28;20120;-67
2022/03/15 03:21:05;;;;;;;14.10;9.20;;;3.10;99.90;;;;;;4996167;28;20054;-68
2022/03/15 03:23:33;;;;;;;15.98;9.32;;;3.10;99.90;;;;;;4992243;28;20070;-66
2022/03/15 03:25:59;;;;;;;14.57;8.98;;;3.10;99.90;;;;;;5026397;28;21779;-66
2022/03/15 03:28:27;;;;;;;17.17;8.93;;;3.00;99.90;;;;;;4992473;28;20081;-66
2022/03/15 03:30:53;;;;;;;15.73;10.27;;;3.00;99.90;;;;;;4993185;28;20038;-66
2022/03/15 03:33:19;;;;;;;18.55;10.55;;;3.00;99.90;;;;;;5027331;28;20049;-66
2022/03/15 03:35:49;;;;;;;20.05;11.80;;;3.00;99.90;;;;;;4992081;28;20320;-66
2022/03/15 03:38:17;;;;;;;20.65;12.18;;;3.00;99.90;;;;;;4994724;28;20046;-66
2022/03/15 03:40:43;;;;;;;21.80;12.30;;;3.00;99.90;;;;;;4991560;28;20120;-67
2022/03/15 03:43:08;;;;;;;22.83;12.55;;;3.10;99.90;;;;;;5029259;28;20132;-67
2022/03/15 03:45:37;;;;;;;29.58;13.73;;;3.10;99.90;;;;;;5025864;28;20049;-67
2022/03/15 03:48:04;;;;;;;23.67;12.52;;;3.20;99.90;;;;;;4994365;28;20046;-67
2022/03/15 03:50:30;;;;;;;28.40;12.23;;;3.20;99.90;;;;;;5027643;28;20046;-66
2022/03/15 03:52:56;;;;;;;24.70;13.00;;;3.20;99.90;;;;;;5002114;28;20039;-66
2022/03/15 03:55:22;;;;;;;29.92;13.07;;;3.30;99.90;;;;;;4995616;28;20037;-66
2022/03/15 03:57:48;;;;;;;27.90;13.85;;;3.30;99.90;;;;;;4994817;28;20473;-66
2022/03/15 04:00:15;;;;;;;27.25;12.70;;;3.30;99.90;;;;;;5000453;28;20042;-67
2022/03/15 04:02:40;;;;;;;20.10;11.38;;;3.30;99.90;;;;;;5022802;28;20050;-66
2022/03/15 04:05:07;;;;;;;25.45;12.68;;;3.40;99.90;;;;;;4996657;28;20454;-67
2022/03/15 04:07:35;;;;;;;25.63;12.65;;;3.40;99.90;;;;;;5026344;28;20129;-66
2022/03/15 04:10:05;;;;;;;28.27;13.02;;;3.40;99.90;;;;;;4994516;28;20070;-67
2022/03/15 04:12:32;;;;;;;26.00;13.32;;;3.50;99.90;;;;;;5024037;28;20134;-67
2022/03/15 04:14:58;;;;;;;33.65;14.75;;;3.40;99.90;;;;;;4994947;28;20042;-67
2022/03/15 04:17:25;;;;;;;24.27;14.63;;;3.50;99.90;;;;;;4987885;28;20042;-67
2022/03/15 04:19:50;;;;;;;22.92;12.70;;;3.50;99.90;;;;;;4993538;28;20034;-67
2022/03/15 04:22:16;;;;;;;29.48;14.45;;;3.50;99.90;;;;;;4990079;28;20092;-67
2022/03/15 04:24:42;;;;;;;24.80;13.50;;;3.50;99.90;;;;;;4994942;28;20482;-67
2022/03/15 04:27:07;;;;;;;21.42;12.73;;;3.50;99.90;;;;;;4992240;28;20494;-67
2022/03/15 04:29:33;;;;;;;33.50;15.18;;;3.50;99.90;;;;;;4998650;28;20478;-67
2022/03/15 04:31:59;;;;;;;35.20;15.10;;;3.60;99.90;;;;;;4996095;28;21774;-67
2022/03/15 04:34:25;;;;;;;33.72;16.40;;;3.60;99.90;;;;;;4998473;28;20045;-67
2022/03/15 04:36:51;;;;;;;32.75;16.70;;;3.60;99.90;;;;;;5031152;28;20054;-66
2022/03/15 04:39:17;;;;;;;33.97;17.40;;;3.70;99.90;;;;;;4995533;28;20038;-67
2022/03/15 04:41:45;;;;;;;30.42;16.50;;;3.70;99.90;;;;;;4998755;28;20458;-66
2022/03/15 04:44:12;;;;;;;38.25;18.42;;;3.80;99.90;;;;;;5025279;28;20427;-67
2022/03/15 04:46:38;;;;;;;33.70;17.48;;;3.80;99.90;;;;;;5026310;28;20053;-66
2022/03/15 04:49:04;;;;;;;41.55;18.15;;;3.90;99.90;;;;;;5000611;28;20489;-66
2022/03/15 04:51:30;;;;;;;26.25;15.80;;;3.90;99.90;;;;;;4995615;28;20126;-66
2022/03/15 04:53:56;;;;;;;33.38;17.58;;;3.90;99.90;;;;;;4999083;28;20438;-66
2022/03/15 04:56:21;;;;;;;30.90;16.80;;;3.90;99.90;;;;;;4999690;28;20037;-66
2022/03/15 04:58:47;;;;;;;26.25;14.73;;;3.90;99.90;;;;;;4978410;28;20041;-66
2022/03/15 05:01:13;;;;;;;34.00;17.25;;;3.90;99.90;;;;;;4997883;28;20061;-66
2022/03/15 05:03:39;;;;;;;30.73;17.02;;;3.90;99.90;;;;;;4997861;28;20039;-66
2022/03/15 05:06:05;;;;;;;33.83;15.95;;;3.90;99.90;;;;;;4996512;28;20379;-66
2022/03/15 05:08:30;;;;;;;36.17;17.58;;;3.90;99.90;;;;;;4996609;28;20486;-66
2022/03/15 05:11:09;;;;;;;37.15;18.02;;;4.00;99.90;;;;;;4999780;28;20121;-66
2022/03/15 05:13:46;;;;;;;36.55;18.20;;;4.00;99.90;;;;;;4998871;28;20042;-66
2022/03/15 05:16:16;;;;;;;33.53;17.10;;;4.00;99.90;;;;;;5012845;28;20077;-66
2022/03/15 05:18:43;;;;;;;33.85;18.27;;;4.00;99.90;;;;;;4995839;28;20049;-66
2022/03/15 05:21:09;;;;;;;40.70;20.13;;;4.00;99.90;;;;;;4996866;28;20054;-66
2022/03/15 05:23:35;;;;;;;36.75;18.92;;;4.00;99.90;;;;;;5030553;28;20049;-66
2022/03/15 05:26:01;;;;;;;33.20;19.77;;;4.10;99.90;;;;;;4997724;28;20575;-66
2022/03/15 05:28:28;;;;;;;38.58;21.60;;;4.10;99.90;;;;;;4995595;28;20147;-66
2022/03/15 05:30:53;;;;;;;42.42;21.95;;;4.10;99.90;;;;;;5027569;28;20134;-66
2022/03/15 05:33:19;;;;;;;46.35;22.77;;;4.10;99.90;;;;;;4992244;28;20052;-66
2022/03/15 05:35:45;;;;;;;45.75;23.13;;;4.10;99.90;;;;;;4998399;28;20037;-66
2022/03/15 05:38:11;;;;;;;44.75;24.05;;;4.10;99.90;;;;;;4995667;28;20509;-66
2022/03/15 05:40:37;;;;;;;57.25;27.13;;;4.20;99.90;;;;;;4992969;28;20050;-66
2022/03/15 05:43:03;;;;;;;48.22;25.17;;;4.20;99.90;;;;;;5001876;28;20065;-66
2022/03/15 05:45:29;;;;;;;47.63;25.65;;;4.20;99.90;;;;;;4995446;28;20045;-66
2022/03/15 05:47:55;;;;;;;50.88;26.40;;;4.30;99.90;;;;;;5003684;28;20091;-66
2022/03/15 05:50:21;;;;;;;50.42;27.25;;;4.30;99.90;;;;;;5027349;28;20058;-66
2022/03/15 05:52:47;;;;;;;62.78;30.38;;;4.30;99.90;;;;;;5035879;28;20042;-67
2022/03/15 05:55:13;;;;;;;68.75;31.35;;;4.40;99.90;;;;;;5029435;28;20069;-67
2022/03/15 05:57:39;;;;;;;59.13;31.02;;;4.40;99.90;;;;;;5005414;28;20466;-67
2022/03/15 06:00:06;;;;;;;57.08;30.45;;;4.50;99.90;;;;;;5004142;28;20042;-67
2022/03/15 06:02:32;;;;;;;61.22;32.55;;;4.40;99.90;;;;;;5003136;28;20042;-67
2022/03/15 06:04:59;;;;;;;64.55;34.05;;;4.50;99.90;;;;;;5004025;28;20045;-67
2022/03/15 06:07:27;;;;;;;55.88;31.95;;;4.50;99.90;;;;;;5004101;28;20046;-67
2022/03/15 06:09:53;;;;;;;65.07;35.08;;;4.60;99.90;;;;;;5002502;28;20081;-67
2022/03/15 06:12:20;;;;;;;68.95;35.38;;;4.60;99.90;;;;;;5002662;28;20030;-67
2022/03/15 06:14:47;;;;;;;65.38;36.17;;;4.70;99.90;;;;;;5001509;28;20069;-67
2022/03/15 06:17:13;;;;;;;72.45;36.50;;;4.70;99.90;;;;;;5034924;28;20046;-67
2022/03/15 06:19:38;;;;;;;66.82;36.22;;;4.80;99.90;;;;;;5030686;28;20038;-67
2022/03/15 06:22:04;;;;;;;65.78;35.30;;;4.80;99.90;;;;;;5000146;28;20081;-67
2022/03/15 06:24:31;;;;;;;61.80;33.95;;;4.90;99.90;;;;;;4999025;28;20111;-67
2022/03/15 06:26:58;;;;;;;68.07;36.85;;;4.90;99.90;;;;;;4997128;28;20133;-67
2022/03/15 06:29:25;;;;;;;69.78;36.58;;;4.90;99.90;;;;;;5000550;28;20375;-67
2022/03/15 06:31:53;;;;;;;61.15;34.10;;;5.00;99.90;;;;;;4992932;28;20070;-67
2022/03/15 06:34:20;;;;;;;57.22;33.60;;;5.00;99.90;;;;;;4998515;28;20038;-67
2022/03/15 06:36:46;;;;;;;60.15;33.88;;;5.10;99.90;;;;;;5000834;28;20076;-67
2022/03/15 06:39:12;;;;;;;61.38;33.85;;;5.10;99.90;;;;;;5006075;28;20053;-67
2022/03/15 06:41:39;;;;;;;65.22;35.72;;;5.10;99.90;;;;;;5006355;28;20042;-67
2022/03/15 06:44:08;;;;;;;68.18;35.15;;;5.20;99.90;;;;;;5009054;28;20042;-67
2022/03/15 06:46:35;;;;;;;64.38;33.38;;;5.20;99.90;;;;;;5003597;28;20466;-67
2022/03/15 06:49:01;;;;;;;64.70;35.10;;;5.20;99.90;;;;;;5007806;28;20513;-67
2022/03/15 06:51:27;;;;;;;52.13;32.33;;;5.30;99.90;;;;;;5008630;28;20134;-67
2022/03/15 06:53:53;;;;;;;51.72;33.20;;;5.30;99.90;;;;;;5011100;28;20125;-67
2022/03/15 06:56:20;;;;;;;54.50;31.50;;;5.30;99.90;;;;;;5038593;28;20042;-67
2022/03/15 06:58:46;;;;;;;54.60;30.85;;;5.30;99.90;;;;;;5010656;28;20096;-67
2022/03/15 07:01:11;;;;;;;49.67;30.95;;;5.40;99.90;;;;;;5038784;28;20804;-67
2022/03/15 07:03:37;;;;;;;48.58;30.55;;;5.50;99.90;;;;;;5009667;28;20092;-67
2022/03/15 07:06:03;;;;;;;51.08;31.48;;;5.50;99.90;;;;;;5039497;28;20061;-67
2022/03/15 07:08:30;;;;;;;45.60;30.08;;;5.50;99.90;;;;;;5009924;28;20041;-67
2022/03/15 07:10:56;;;;;;;46.90;29.33;;;5.50;99.90;;;;;;5009826;28;20571;-67
2022/03/15 07:13:21;;;;;;;45.22;29.88;;;5.60;99.90;;;;;;5007978;28;20132;-67
2022/03/15 07:15:47;;;;;;;48.58;29.98;;;5.60;99.90;;;;;;5007181;28;20038;-67
2022/03/15 07:18:15;;;;;;;45.65;29.55;;;5.60;99.90;;;;;;5039275;28;20053;-67
2022/03/15 07:20:41;;;;;;;44.45;30.10;;;5.70;99.90;;;;;;5009023;28;20441;-67
2022/03/15 07:23:07;;;;;;;45.88;31.10;;;5.70;99.90;;;;;;5007106;28;20548;-67
2022/03/15 07:25:33;;;;;;;50.83;31.85;;;5.80;99.90;;;;;;5008660;28;20066;-67
2022/03/15 07:27:59;;;;;;;50.08;31.25;;;5.80;99.90;;;;;;5005873;28;20045;-67
2022/03/15 07:30:25;;;;;;;49.13;31.10;;;5.90;99.90;;;;;;5004484;28;20041;-67
2022/03/15 07:32:52;;;;;;;43.63;31.50;;;5.90;99.90;;;;;;5006462;28;20485;-67
2022/03/15 07:35:18;;;;;;;46.70;31.20;;;6.00;99.90;;;;;;5006610;28;20080;-67
2022/03/15 07:37:58;;;;;;;47.08;30.85;;;6.10;99.90;;;;;;5007487;28;20046;-67
2022/03/15 07:40:25;;;;;;;45.97;31.40;;;6.10;99.90;;;;;;5039030;28;20429;-67
2022/03/15 07:42:52;;;;;;;46.83;30.38;;;6.10;99.90;;;;;;5007815;28;20041;-67
2022/03/15 07:45:18;;;;;;;46.22;30.55;;;6.20;99.90;;;;;;5006755;28;20057;-67
2022/03/15 07:47:44;;;;;;;44.70;30.85;;;6.20;99.90;;;;;;5007102;28;20040;-67
2022/03/15 07:50:10;;;;;;;40.38;29.63;;;6.20;99.90;;;;;;5008384;28;20033;-67
2022/03/15 07:52:36;;;;;;;40.92;30.30;;;6.30;99.90;;;;;;5039764;28;20452;-67
2022/03/15 07:55:02;;;;;;;42.33;29.10;;;6.30;99.90;;;;;;5008585;28;20064;-67
2022/03/15 07:57:28;;;;;;;43.28;29.80;;;6.30;99.90;;;;;;5008795;28;20243;-67
2022/03/15 07:59:54;;;;;;;40.10;28.30;;;6.30;99.90;;;;;;5008401;28;20049;-67
2022/03/15 08:02:19;;;;;;;43.45;31.58;;;6.30;99.90;;;;;;5005984;28;20478;-67
2022/03/15 08:04:45;;;;;;;40.58;28.85;;;6.40;99.90;;;;;;5040031;28;20057;-67
2022/03/15 08:07:11;;;;;;;46.03;30.73;;;6.40;99.90;;;;;;5006463;28;20104;-67
2022/03/15 08:09:38;;;;;;;42.30;28.88;;;6.40;99.90;;;;;;5005781;28;20038;-67
2022/03/15 08:12:04;;;;;;;44.42;28.77;;;6.50;99.90;;;;;;5029501;28;20101;-66
2022/03/15 08:14:30;;;;;;;41.42;29.35;;;6.50;99.90;;;;;;4996493;28;20042;-66
2022/03/15 08:16:56;;;;;;;46.05;29.88;;;6.50;99.90;;;;;;4996950;28;20130;-66
2022/03/15 08:19:21;;;;;;;37.53;28.55;;;6.50;99.90;;;;;;4994801;28;20081;-66
2022/03/15 08:21:47;;;;;;;40.85;28.83;;;6.50;99.90;;;;;;4998306;28;20490;-66
2022/03/15 08:24:14;;;;;;;42.25;29.17;;;6.60;99.90;;;;;;4995594;28;20529;-66
2022/03/15 08:26:40;;;;;;;42.78;30.10;;;6.60;99.90;;;;;;4999953;28;20136;-66
2022/03/15 08:29:06;;;;;;;40.35;28.92;;;6.60;99.90;;;;;;5008512;28;20057;-66
2022/03/15 08:31:32;;;;;;;37.08;28.02;;;6.70;99.90;;;;;;5001175;28;20042;-67
2022/03/15 08:33:57;;;;;;;41.80;31.00;;;6.70;99.90;;;;;;4999445;28;20056;-67
2022/03/15 08:36:23;;;;;;;41.45;31.75;;;6.70;99.90;;;;;;5000649;28;20029;-67
2022/03/15 08:38:50;;;;;;;37.83;28.88;;;6.70;99.90;;;;;;5005274;28;20042;-67
2022/03/15 08:41:16;;;;;;;42.92;31.13;;;6.80;99.90;;;;;;5006042;28;20050;-67
2022/03/15 08:43:42;;;;;;;38.88;29.48;;;6.80;99.90;;;;;;5007542;28;20049;-67
2022/03/15 08:46:08;;;;;;;42.90;30.95;;;6.80;99.90;;;;;;5006169;28;21166;-67
2022/03/15 08:48:34;;;;;;;36.22;28.13;;;6.80;99.90;;;;;;5007930;28;20055;-67
2022/03/15 08:51:00;;;;;;;38.65;29.83;;;6.90;99.90;;;;;;5007615;28;20057;-67
2022/03/15 08:53:27;;;;;;;40.95;30.33;;;6.90;99.90;;;;;;5006788;28;20516;-67
2022/03/15 08:55:53;;;;;;;41.40;28.38;;;7.00;99.90;;;;;;5007348;28;20077;-67
2022/03/15 08:58:19;;;;;;;56.67;38.80;;;7.00;99.90;;;;;;5005372;28;20465;-67
2022/03/15 09:00:45;;;;;;;38.50;29.30;;;7.10;99.90;;;;;;5036893;28;20148;-67
2022/03/15 09:03:10;;;;;;;38.80;29.25;;;7.10;99.90;;;;;;5036853;28;20115;-67
2022/03/15 09:05:36;;;;;;;38.90;29.75;;;7.10;99.90;;;;;;5004395;28;20069;-67
2022/03/15 09:08:02;;;;;;;37.88;28.92;;;7.10;99.90;;;;;;5006880;28;20443;-67
2022/03/15 09:10:28;;;;;;;40.88;29.00;;;7.20;99.90;;;;;;5036378;28;20104;-67
2022/03/15 09:12:53;;;;;;;39.35;28.85;;;7.20;99.90;;;;;;5007064;28;20049;-67
2022/03/15 09:15:21;;;;;;;39.15;28.65;;;7.40;99.90;;;;;;5008420;28;20163;-67
2022/03/15 09:17:46;;;;;;;40.88;28.95;;;7.30;99.90;;;;;;5008511;28;20046;-67
2022/03/15 09:20:12;;;;;;;39.15;28.98;;;7.30;99.90;;;;;;5007883;28;21414;-67
2022/03/15 09:22:38;;;;;;;40.85;29.08;;;7.40;99.90;;;;;;5007609;28;20050;-67
2022/03/15 09:25:05;;;;;;;35.85;28.65;;;7.40;99.90;;;;;;5005735;28;20223;-67
2022/03/15 09:27:31;;;;;;;38.80;28.88;;;7.40;99.90;;;;;;5010322;28;20143;-67
2022/03/15 09:29:57;;;;;;;39.63;30.27;;;7.50;99.90;;;;;;5040748;28;20471;-67
2022/03/15 09:32:24;;;;;;;35.92;28.10;;;7.50;99.90;;;;;;5003856;28;20054;-67
2022/03/15 09:34:50;;;;;;;37.88;27.98;;;7.60;99.90;;;;;;5009099;28;20081;-67
2022/03/15 09:37:16;;;;;;;38.28;28.45;;;7.60;99.90;;;;;;5003381;28;20037;-67
2022/03/15 09:39:41;;;;;;;34.42;27.45;;;7.60;99.90;;;;;;5006497;28;20486;-67
2022/03/15 09:42:09;;;;;;;35.70;27.85;;;7.70;99.90;;;;;;5001366;28;20030;-67
2022/03/15 09:44:38;;;;;;;33.80;26.80;;;7.70;99.90;;;;;;5004139;28;20033;-67
2022/03/15 09:47:05;;;;;;;36.38;27.80;;;7.70;99.90;;;;;;5000961;28;20077;-67
2022/03/15 09:49:33;;;;;;;37.00;27.23;;;7.70;99.90;;;;;;5037298;28;20100;-67
2022/03/15 09:51:59;;;;;;;34.97;27.67;;;7.80;99.90;;;;;;5001607;28;20470;-67
2022/03/15 09:54:27;;;;;;;37.97;28.20;;;7.90;99.90;;;;;;5006247;28;20038;-67
2022/03/15 09:56:54;;;;;;;36.55;28.02;;;7.90;99.90;;;;;;5002733;28;20034;-67
2022/03/15 09:59:22;;;;;;;37.05;27.45;;;8.10;99.90;;;;;;5008197;28;20208;-67
2022/03/15 10:01:53;;;;;;;32.40;26.00;;;8.10;99.90;;;;;;5005292;28;20061;-68
2022/03/15 10:04:20;;;;;;;28.95;25.73;;;8.20;99.90;;;;;;5000297;28;20089;-68
2022/03/15 10:06:46;;;;;;;36.67;27.42;;;8.30;99.90;;;;;;5014703;28;20061;-68
2022/03/15 10:09:14;;;;;;;32.75;25.33;;;8.30;99.90;;;;;;5028090;28;20061;-68
2022/03/15 10:11:40;;;;;;;34.80;25.90;;;8.40;99.90;;;;;;4996920;28;20065;-68
2022/03/15 10:14:06;;;;;;;29.73;24.52;;;8.40;99.90;;;;;;4995270;28;20069;-68
2022/03/15 10:16:40;;;;;;;28.23;24.77;;;8.40;99.90;;;;;;4993889;28;20038;-66
2022/03/15 10:19:11;;;;;;;30.00;25.70;;;8.50;99.90;;;;;;5006635;28;20107;-66
2022/03/15 10:21:44;;;;;;;39.17;25.65;;;8.50;99.90;;;;;;4999965;28;20121;-67
2022/03/15 10:24:10;;;;;;;28.30;23.55;;;8.60;99.90;;;;;;5007294;28;20076;-67
2022/03/15 10:26:39;;;;;;;30.77;22.92;;;8.60;99.90;;;;;;5002210;28;20084;-67
2022/03/15 10:29:06;;;;;;;31.58;25.27;;;8.80;99.90;;;;;;4997356;28;20557;-67
2022/03/15 10:31:32;;;;;;;27.02;22.08;;;8.90;99.90;;;;;;5004753;28;20033;-66
2022/03/15 10:34:01;;;;;;;29.58;22.90;;;9.20;99.90;;;;;;5032218;28;20470;-67
2022/03/15 10:36:36;;;;;;;30.38;24.08;;;9.40;99.90;;;;;;5034867;28;20034;-67
2022/03/15 10:39:03;;;;;;;32.20;23.13;;;9.50;99.90;;;;;;4998247;28;20038;-67
2022/03/15 10:41:29;;;;;;;30.73;23.17;;;9.70;99.90;;;;;;5004117;28;20065;-67
2022/03/15 10:43:57;;;;;;;28.20;21.88;;;9.70;99.90;;;;;;5036058;28;20046;-67
2022/03/15 10:46:25;;;;;;;23.05;19.88;;;9.80;99.90;;;;;;5035230;28;20042;-67
2022/03/15 10:49:01;;;;;;;26.25;20.48;;;9.80;99.90;;;;;;5002167;28;20026;-67
2022/03/15 10:51:28;;;;;;;24.73;20.40;;;9.80;99.90;;;;;;5001464;28;20046;-67
2022/03/15 10:54:03;;;;;;;25.15;21.23;;;9.80;99.90;;;;;;5008505;28;20108;-67
2022/03/15 10:56:30;;;;;;;23.83;19.25;;;9.80;99.90;;;;;;5005344;28;20034;-67
2022/03/15 10:59:03;;;;;;;27.27;19.75;;;9.90;99.90;;;;;;5001474;28;20038;-67
2022/03/15 11:01:36;;;;;;;26.87;20.17;;;9.90;99.90;;;;;;4998395;28;20478;-67
2022/03/15 11:04:06;;;;;;;24.08;18.02;;;10.10;99.90;;;;;;4992196;28;20478;-67
2022/03/15 11:06:37;;;;;;;23.02;18.13;;;10.20;99.90;;;;;;4997454;28;20092;-68
2022/03/15 11:09:25;;;;;;;21.45;16.52;;;10.30;99.90;;;;;;5028848;28;20120;-68
2022/03/15 11:12:08;;;;;;;21.73;16.67;;;10.40;99.90;;;;;;5005748;28;20074;-68
2022/03/15 11:14:39;;;;;;;21.70;16.35;;;10.50;99.90;;;;;;5003031;28;20046;-68
2022/03/15 11:17:26;;;;;;;23.05;15.23;;;10.60;99.90;;;;;;5004600;28;20050;-68
2022/03/15 11:19:54;;;;;;;21.63;15.52;;;10.70;99.90;;;;;;5000299;28;20046;-68
2022/03/15 11:22:26;;;;;;;17.33;13.73;;;10.70;99.90;;;;;;5001965;28;20038;-68
2022/03/15 11:25:04;;;;;;;17.17;14.07;;;10.80;99.90;;;;;;5003787;28;20078;-68
2022/03/15 11:27:33;;;;;;;21.00;14.77;;;10.90;99.90;;;;;;5037802;28;20085;-68
2022/03/15 11:30:02;;;;;;;17.77;13.93;;;10.90;99.90;;;;;;5001805;28;20405;-68
2022/03/15 11:32:34;;;;;;;17.70;13.60;;;11.00;99.90;;;;;;5003821;28;20192;-68
2022/03/15 11:34:59;;;;;;;18.95;13.85;;;11.00;99.90;;;;;;5033333;28;20085;-68
2022/03/15 11:37:26;;;;;;;16.45;13.35;;;11.00;99.90;;;;;;5000757;28;20088;-68
2022/03/15 11:39:53;;;;;;;18.42;14.05;;;11.00;99.90;;;;;;5032025;28;20124;-68
2022/03/15 11:42:19;;;;;;;20.88;14.05;;;11.10;99.90;;;;;;4999416;28;20061;-68
2022/03/15 11:45:01;;;;;;;20.50;15.65;;;11.00;99.90;;;;;;5000220;28;20038;-68
2022/03/15 11:47:43;;;;;;;16.05;14.35;;;11.00;99.90;;;;;;5002332;28;20042;-68
2022/03/15 11:50:31;;;;;;;19.38;14.20;;;11.00;99.90;;;;;;4997155;28;20046;-68
2022/03/15 11:53:15;;;;;;;20.63;14.85;;;11.00;99.90;;;;;;4998634;28;20130;-66
2022/03/15 11:55:49;;;;;;;17.65;14.23;;;11.00;99.90;;;;;;4996978;28;20092;-69
2022/03/15 11:58:24;;;;;;;17.63;14.50;;;11.00;99.90;;;;;;4996332;28;20113;-66
2022/03/15 12:00:50;;;;;;;23.30;15.45;;;11.00;99.90;;;;;;5008720;28;20050;-67
2022/03/15 12:03:18;;;;;;;21.10;14.15;;;11.00;99.90;;;;;;4999572;28;20116;-68
2022/03/15 12:05:57;;;;;;;17.20;13.65;;;11.00;99.90;;;;;;4994693;28;20050;-68
2022/03/15 12:08:27;;;;;;;21.48;13.65;;;11.00;99.90;;;;;;5000561;28;20096;-68
2022/03/15 12:11:24;;;;;;;18.92;12.20;;;10.90;99.90;;;;;;4996962;28;20042;-68
2022/03/15 12:13:50;;;;;;;19.52;13.15;;;10.90;99.90;;;;;;5000976;28;20050;-68
2022/03/15 12:16:27;;;;;;;17.92;12.07;;;10.90;99.90;;;;;;4998599;28;20132;-68
2022/03/15 12:19:14;;;;;;;18.80;12.82;;;11.00;99.90;;;;;;4999244;28;20057;-68
2022/03/15 12:21:54;;;;;;;18.30;12.68;;;11.00;99.90;;;;;;4999286;28;20072;-68
2022/03/15 12:24:32;;;;;;;20.55;12.60;;;11.00;99.90;;;;;;5019223;28;20555;-68
2022/03/15 12:27:03;;;;;;;19.35;12.48;;;11.00;99.90;;;;;;4998887;28;20090;-68
2022/03/15 12:29:29;;;;;;;22.40;13.73;;;11.10;99.90;;;;;;5002824;28;20519;-68
2022/03/15 12:31:57;;;;;;;17.92;13.23;;;11.10;99.90;;;;;;5002359;28;20038;-68
2022/03/15 12:34:26;;;;;;;22.85;12.93;;;11.20;99.90;;;;;;4999484;28;20049;-68
2022/03/15 12:36:59;;;;;;;18.10;12.15;;;11.20;99.90;;;;;;5001665;28;20081;-68